Time;durP1;ratioP1;P1;durP2;ratioP2;P2;SDS_P1;SDS_P2;PMS_P1;PMS_P2;Temp;Humidity;BMP_temperature;BMP_pressure;BME280_temperature;BME280_humidity;BME280_pressure;Samples;Min_cycle;Max_cycle;Signal;HPM_P1;HPM_P2
2022/05/08 00:01:09;;;;;;;12.85;4.75;;;12.10;81.50;12.70;99101.00;;;;4880722;28;88075;-63
2022/05/08 00:03:35;;;;;;;15.07;4.93;;;12.10;81.70;12.80;99094.00;;;;4882825;28;87486;-63
2022/05/08 00:06:07;;;;;;;13.18;4.65;;;12.10;82.10;12.80;99091.00;;;;4883540;28;87051;-63
2022/05/08 00:08:33;;;;;;;12.93;4.63;;;12.10;81.80;12.80;99095.00;;;;4884150;28;86255;-63
2022/05/08 00:10:59;;;;;;;10.82;4.22;;;12.10;82.30;12.80;99096.00;;;;4867461;28;88049;-63
2022/05/08 00:13:25;;;;;;;9.07;4.85;;;12.10;82.50;12.80;99077.00;;;;4883242;28;88357;-63
2022/05/08 00:15:51;;;;;;;8.25;4.45;;;12.10;82.30;12.80;99083.00;;;;4883427;28;87995;-63
2022/05/08 00:18:17;;;;;;;9.52;4.63;;;12.10;82.70;12.80;99081.00;;;;4883922;28;87090;-63
2022/05/08 00:20:43;;;;;;;11.60;4.78;;;12.10;83.20;12.80;99078.00;;;;4884024;28;87731;-65
2022/05/08 00:23:10;;;;;;;12.32;4.82;;;12.10;83.20;12.80;99075.00;;;;4884257;28;88470;-65
2022/05/08 00:25:37;;;;;;;8.02;5.20;;;12.20;83.20;12.80;99078.00;;;;4886206;28;86969;-63
2022/05/08 00:28:04;;;;;;;13.63;4.95;;;12.10;83.30;12.80;99087.00;;;;4886541;28;86978;-63
2022/05/08 00:30:30;;;;;;;9.25;5.15;;;12.10;83.60;12.80;99074.00;;;;4887399;28;89210;-63
2022/05/08 00:32:58;;;;;;;9.10;4.70;;;12.10;83.50;12.80;99077.00;;;;4887362;28;86299;-63
2022/05/08 00:35:24;;;;;;;10.30;5.35;;;12.10;84.00;12.80;99072.00;;;;4885762;28;87003;-63
2022/05/08 00:37:50;;;;;;;16.25;5.57;;;12.10;84.40;12.70;99064.00;;;;4901381;28;87119;-62
2022/05/08 00:40:16;;;;;;;11.05;5.65;;;12.10;84.40;12.80;99066.00;;;;4884924;28;88854;-62
2022/05/08 00:42:43;;;;;;;11.55;5.25;;;12.10;84.70;12.80;99069.00;;;;4886982;28;89374;-63
2022/05/08 00:45:10;;;;;;;11.20;5.10;;;12.10;84.80;12.80;99065.00;;;;4886763;28;87291;-63
2022/05/08 00:47:36;;;;;;;9.50;4.88;;;12.10;85.10;12.80;99070.00;;;;4885506;28;87107;-63
2022/05/08 00:50:04;;;;;;;7.38;4.38;;;12.10;85.10;12.80;99065.00;;;;4886341;28;87874;-63
2022/05/08 00:52:30;;;;;;;12.68;5.10;;;12.10;85.90;12.80;99053.00;;;;4885951;28;87357;-63
2022/05/08 00:55:00;;;;;;;14.77;5.30;;;12.10;85.80;12.70;99053.00;;;;4885923;28;86988;-63
2022/05/08 00:57:27;;;;;;;7.75;4.50;;;12.10;86.70;12.70;99050.00;;;;4886418;28;86390;-63
2022/05/08 01:00:04;;;;;;;12.13;5.50;;;12.10;86.40;12.70;99055.00;;;;4886593;28;89008;-64
2022/05/08 01:02:30;;;;;;;13.57;4.75;;;12.10;86.80;12.70;99047.00;;;;4885734;28;87143;-63
2022/05/08 01:04:56;;;;;;;10.85;5.65;;;12.10;86.90;12.70;99057.00;;;;4886026;28;88416;-64
2022/05/08 01:07:22;;;;;;;8.18;4.88;;;12.10;87.10;12.70;99041.00;;;;4885711;28;87174;-63
2022/05/08 01:09:50;;;;;;;11.15;5.00;;;12.10;87.30;12.70;99044.00;;;;4886241;28;87531;-63
2022/05/08 01:12:16;;;;;;;11.00;5.25;;;12.10;87.10;12.70;99034.00;;;;4869586;28;90343;-63
2022/05/08 01:14:42;;;;;;;9.80;5.15;;;12.10;87.20;12.70;99030.00;;;;4886444;28;86932;-64
2022/05/08 01:17:09;;;;;;;10.98;5.40;;;12.10;87.60;12.70;99025.00;;;;4886707;28;87121;-64
2022/05/08 01:19:35;;;;;;;8.80;4.80;;;12.10;88.00;12.70;99027.00;;;;4886298;28;88645;-64
2022/05/08 01:22:01;;;;;;;10.95;5.25;;;12.10;88.30;12.70;99035.00;;;;4886380;28;87500;-64
2022/05/08 01:24:27;;;;;;;10.73;5.05;;;12.10;88.20;12.70;99030.00;;;;4886670;28;87180;-64
2022/05/08 01:26:53;;;;;;;10.30;5.30;;;12.10;88.80;12.70;99022.00;;;;4885427;28;86996;-63
2022/05/08 01:29:19;;;;;;;9.80;4.95;;;12.10;88.80;12.70;99013.00;;;;4886078;28;88548;-63
2022/05/08 01:31:46;;;;;;;14.48;4.80;;;12.00;89.40;12.60;99017.00;;;;4886179;28;88264;-62
2022/05/08 01:34:12;;;;;;;10.50;4.97;;;12.00;88.90;12.60;99013.00;;;;4886253;28;87533;-63
2022/05/08 01:36:40;;;;;;;9.95;5.32;;;12.00;90.00;12.70;99015.00;;;;4885249;28;87004;-62
2022/05/08 01:39:06;;;;;;;9.70;4.97;;;12.00;89.30;12.70;99016.00;;;;4900355;28;88826;-62
2022/05/08 01:41:33;;;;;;;10.80;4.85;;;12.00;88.90;12.70;99016.00;;;;4885731;28;87225;-63
2022/05/08 01:43:59;;;;;;;11.77;4.90;;;12.00;89.70;12.70;99005.00;;;;4886108;28;86973;-63
2022/05/08 01:46:25;;;;;;;9.82;4.80;;;12.00;90.00;12.70;99001.00;;;;4877009;28;86338;-63
2022/05/08 01:48:51;;;;;;;10.77;5.05;;;12.00;90.00;12.70;99010.00;;;;4885409;28;87797;-64
2022/05/08 01:51:17;;;;;;;11.80;5.18;;;12.00;89.40;12.70;99004.00;;;;4885504;28;87278;-64
2022/05/08 01:53:44;;;;;;;7.68;4.70;;;12.00;89.60;12.70;98997.00;;;;4884872;28;88009;-63
2022/05/08 01:56:10;;;;;;;16.15;5.00;;;12.00;89.20;12.70;99002.00;;;;4885832;28;87403;-64
2022/05/08 01:58:36;;;;;;;9.98;4.97;;;12.00;90.10;12.70;99008.00;;;;4885684;28;88590;-63
2022/05/08 02:01:08;;;;;;;9.05;5.13;;;12.00;90.10;12.60;99011.00;;;;4885657;28;88864;-62
2022/05/08 02:03:34;;;;;;;11.20;4.88;;;12.00;90.00;12.60;99018.00;;;;4880862;28;86936;-63
2022/05/08 02:06:00;;;;;;;9.98;4.75;;;12.00;90.20;12.60;99016.00;;;;4885386;28;87453;-64
2022/05/08 02:08:27;;;;;;;16.63;5.30;;;12.00;89.80;12.70;99004.00;;;;4885565;28;86979;-63
2022/05/08 02:10:53;;;;;;;8.38;4.68;;;12.00;90.10;12.70;99007.00;;;;4868050;28;88560;-62
2022/05/08 02:13:20;;;;;;;8.88;4.60;;;12.00;90.10;12.70;99013.00;;;;4852653;28;87026;-63
2022/05/08 02:15:46;;;;;;;8.05;4.43;;;12.00;89.80;12.70;99000.00;;;;4885234;28;87531;-64
2022/05/08 02:18:13;;;;;;;7.68;4.53;;;12.00;90.10;12.70;99005.00;;;;4885097;28;89689;-64
2022/05/08 02:20:39;;;;;;;12.57;4.32;;;12.00;90.20;12.70;99006.00;;;;4885270;28;89420;-64
2022/05/08 02:23:06;;;;;;;12.27;4.82;;;12.00;90.20;12.70;99020.00;;;;4885730;28;86877;-64
2022/05/08 02:25:33;;;;;;;9.38;4.50;;;12.10;90.40;12.70;99008.00;;;;4885103;28;87014;-63
2022/05/08 02:28:00;;;;;;;12.15;4.35;;;12.00;90.30;12.70;99010.00;;;;4885584;28;88125;-63
2022/05/08 02:30:26;;;;;;;8.98;4.20;;;12.00;90.30;12.70;99002.00;;;;4883539;28;89340;-63
2022/05/08 02:32:53;;;;;;;13.82;3.92;;;12.00;90.30;12.70;98993.00;;;;4885211;28;86988;-64
2022/05/08 02:35:22;;;;;;;10.63;3.95;;;12.00;90.30;12.70;99000.00;;;;4852754;28;87324;-63
2022/05/08 02:37:52;;;;;;;12.27;4.28;;;12.00;90.40;12.70;99011.00;;;;4835946;28;90282;-64
2022/05/08 02:40:19;;;;;;;8.48;3.97;;;12.10;90.50;12.70;99003.00;;;;4884881;28;87217;-63
2022/05/08 02:42:46;;;;;;;10.40;4.20;;;12.10;90.80;12.70;99003.00;;;;4868163;28;88112;-64
2022/05/08 02:45:13;;;;;;;9.20;4.60;;;12.00;90.70;12.70;98999.00;;;;4885356;28;87031;-64
2022/05/08 02:47:42;;;;;;;8.18;4.13;;;12.00;91.10;12.70;99012.00;;;;4883828;28;87676;-63
2022/05/08 02:50:09;;;;;;;9.75;4.30;;;12.10;91.30;12.70;99007.00;;;;4868252;28;88259;-64
2022/05/08 02:52:39;;;;;;;12.68;4.47;;;12.00;91.30;12.80;99002.00;;;;4883782;28;86978;-64
2022/05/08 03:00:42;;;;;;;8.35;4.30;;;12.10;91.40;12.70;99001.00;;;;4879151;28;87275;-63
2022/05/08 03:03:10;;;;;;;11.02;4.40;;;12.00;91.80;12.70;99002.00;;;;4867818;28;87397;-63
2022/05/08 03:05:37;;;;;;;9.82;4.80;;;12.00;91.60;12.60;99004.00;;;;4884761;28;87430;-63
2022/05/08 03:08:07;;;;;;;9.13;3.97;;;12.00;91.80;12.60;99008.00;;;;4884216;28;88524;-64
2022/05/08 03:13:19;;;;;;;13.55;4.32;;;11.90;92.30;12.60;99012.00;;;;4885160;28;87020;-63
2022/05/08 03:15:45;;;;;;;13.30;4.50;;;11.90;92.80;12.50;99010.00;;;;4884666;28;87435;-63
2022/05/08 03:18:17;;;;;;;10.88;4.35;;;11.90;93.30;12.60;99011.00;;;;4884665;28;87621;-64
2022/05/08 03:20:47;;;;;;;8.27;4.22;;;11.90;93.20;12.60;99015.00;;;;4868440;28;90158;-64
2022/05/08 03:23:17;;;;;;;10.57;5.03;;;11.90;93.00;12.60;99011.00;;;;4885072;28;87979;-64
2022/05/08 03:25:43;;;;;;;11.52;4.80;;;11.90;93.40;12.60;99008.00;;;;4884729;28;86252;-63
2022/05/08 03:28:10;;;;;;;10.65;4.53;;;11.90;94.00;12.60;99020.00;;;;4884875;28;87676;-64
2022/05/08 03:30:36;;;;;;;9.10;4.25;;;12.00;93.80;12.70;99021.00;;;;4884371;28;87047;-63
2022/05/08 03:33:02;;;;;;;10.10;4.20;;;12.00;93.70;12.80;99016.00;;;;4883697;28;88016;-64
2022/05/08 03:35:28;;;;;;;10.43;5.07;;;12.10;93.60;12.80;99024.00;;;;4884229;28;87095;-63
2022/05/08 03:37:54;;;;;;;7.88;4.10;;;12.10;93.80;12.80;99015.00;;;;4883329;28;87550;-63
2022/05/08 03:40:21;;;;;;;9.75;4.43;;;12.10;94.00;12.90;99025.00;;;;4850724;28;87562;-64
2022/05/08 03:42:47;;;;;;;10.98;4.68;;;12.10;93.80;12.90;99015.00;;;;4883808;28;86932;-63
2022/05/08 03:45:13;;;;;;;13.38;4.45;;;12.30;93.50;13.00;99014.00;;;;4867119;28;87557;-63
2022/05/08 03:47:39;;;;;;;11.07;4.30;;;12.30;93.80;13.00;99017.00;;;;4883600;28;87275;-64
2022/05/08 03:50:07;;;;;;;7.85;4.50;;;12.30;93.80;13.00;99018.00;;;;4884173;28;88257;-63
2022/05/08 03:52:34;;;;;;;10.85;4.32;;;12.30;93.90;13.10;99016.00;;;;4883571;28;86921;-64
2022/05/08 03:55:01;;;;;;;13.77;5.28;;;12.40;93.70;13.20;99014.00;;;;4883901;28;87126;-63
2022/05/08 03:57:27;;;;;;;10.75;4.55;;;12.40;93.60;13.20;99012.00;;;;4883564;28;89590;-63
2022/05/08 03:59:53;;;;;;;14.75;4.93;;;12.50;93.50;13.20;99007.00;;;;4886973;28;88318;-63
2022/05/08 04:02:19;;;;;;;9.45;4.30;;;12.50;93.60;13.30;99000.00;;;;4887828;28;87617;-64
2022/05/08 04:04:46;;;;;;;11.18;4.40;;;12.50;93.60;13.30;99010.00;;;;4887287;28;87459;-64
2022/05/08 04:07:13;;;;;;;12.50;5.00;;;12.50;93.50;13.50;99011.00;;;;4887460;28;87662;-64
2022/05/08 04:09:40;;;;;;;12.77;5.00;;;12.70;93.60;13.50;99004.00;;;;4887023;28;87221;-63
2022/05/08 04:12:06;;;;;;;9.25;4.45;;;12.70;93.10;13.60;99000.00;;;;4887516;28;87260;-64
2022/05/08 04:14:32;;;;;;;9.30;3.95;;;12.80;92.80;13.60;98994.00;;;;4887713;28;86277;-64
2022/05/08 04:16:59;;;;;;;11.52;5.20;;;12.80;93.20;13.50;98997.00;;;;4887573;28;87380;-63
2022/05/08 04:19:25;;;;;;;17.58;4.70;;;12.80;93.10;13.70;98999.00;;;;4886785;28;87306;-63
2022/05/08 04:24:16;;;;;;;9.40;4.55;;;13.00;92.60;14.30;98994.00;;;;4869972;28;88274;-63
2022/05/08 04:24:41;;;;;;;14.18;4.88;;;13.50;91.80;15.30;98986.00;;;;4887652;28;87360;-64
2022/05/08 04:27:08;;;;;;;10.60;4.47;;;14.30;90.20;15.70;98978.00;;;;4887122;28;88939;-65
2022/05/08 04:29:34;;;;;;;11.10;4.70;;;14.80;87.60;16.20;98989.00;;;;4887003;28;87203;-64
2022/05/08 04:32:00;;;;;;;9.15;4.55;;;15.20;85.10;16.60;98990.00;;;;4887099;28;86990;-64
2022/05/08 04:34:26;;;;;;;13.82;4.85;;;15.50;81.90;16.70;98990.00;;;;4887092;28;87077;-64
2022/05/08 04:36:53;;;;;;;8.07;4.63;;;15.80;79.30;17.00;98994.00;;;;4886718;28;87797;-65
2022/05/08 04:39:19;;;;;;;15.27;5.25;;;15.90;77.10;16.90;98992.00;;;;4869844;28;87252;-64
2022/05/08 04:41:45;;;;;;;10.73;4.65;;;15.80;77.10;16.50;98988.00;;;;4869933;28;87164;-64
2022/05/08 04:44:14;;;;;;;10.80;5.10;;;15.40;78.40;15.70;98992.00;;;;4887368;28;87334;-64
2022/05/08 04:46:40;;;;;;;9.77;5.57;;;14.80;80.60;15.50;98986.00;;;;4885148;28;88621;-63
2022/05/08 04:49:06;;;;;;;7.53;4.85;;;14.70;82.20;15.40;98992.00;;;;4886957;28;87920;-63
2022/05/08 04:51:34;;;;;;;10.48;5.05;;;14.60;83.10;15.50;98988.00;;;;4886951;28;87008;-63
2022/05/08 04:54:00;;;;;;;8.85;5.30;;;14.60;84.20;15.30;98995.00;;;;4884985;28;87536;-63
2022/05/08 04:56:26;;;;;;;10.95;4.95;;;14.40;85.00;15.10;98991.00;;;;4886597;28;87644;-64
2022/05/08 04:58:53;;;;;;;9.30;5.25;;;14.30;85.40;15.00;98989.00;;;;4886860;28;87496;-64
2022/05/08 05:01:19;;;;;;;9.93;5.30;;;14.20;86.70;15.20;98977.00;;;;4887173;28;87021;-64
2022/05/08 05:03:45;;;;;;;10.50;5.10;;;14.40;86.90;15.50;98986.00;;;;4877830;28;86760;-64
2022/05/08 05:06:11;;;;;;;10.63;4.82;;;14.60;86.00;15.90;98981.00;;;;4869165;28;87476;-64
2022/05/08 05:08:37;;;;;;;15.70;5.38;;;14.90;84.00;15.60;98988.00;;;;4886206;28;87372;-63
2022/05/08 05:11:08;;;;;;;15.05;5.28;;;14.80;85.20;15.50;98982.00;;;;4884755;28;88122;-63
2022/05/08 05:13:39;;;;;;;10.13;4.95;;;14.70;84.50;15.70;98976.00;;;;4886351;28;87413;-63
2022/05/08 05:16:06;;;;;;;11.95;5.45;;;15.00;84.60;16.10;98991.00;;;;4886655;28;87649;-63
2022/05/08 05:18:32;;;;;;;8.00;4.95;;;15.20;82.30;16.30;98981.00;;;;4869462;28;88534;-64
2022/05/08 05:20:59;;;;;;;14.20;5.22;;;15.40;82.10;16.50;98979.00;;;;4870867;28;87058;-64
2022/05/08 05:23:25;;;;;;;9.20;5.22;;;15.60;81.50;16.60;98970.00;;;;4886245;28;87518;-64
2022/05/08 05:25:52;;;;;;;8.60;5.50;;;15.80;81.30;17.20;98976.00;;;;4869213;28;87864;-64
2022/05/08 05:28:18;;;;;;;9.43;4.85;;;16.20;79.20;17.60;98985.00;;;;4887080;28;87396;-64
2022/05/08 05:30:44;;;;;;;12.30;5.63;;;16.60;77.30;17.90;98970.00;;;;4886326;28;87748;-64
2022/05/08 05:33:15;;;;;;;11.98;5.53;;;16.90;76.40;17.90;98972.00;;;;4885806;28;87188;-64
2022/05/08 05:35:42;;;;;;;11.40;5.72;;;16.80;75.60;18.40;98967.00;;;;4884841;28;90206;-64
2022/05/08 05:38:09;;;;;;;13.43;5.50;;;17.40;74.20;19.00;98974.00;;;;4868772;28;89462;-66
2022/05/08 05:40:35;;;;;;;10.82;5.35;;;17.70;71.80;19.10;98962.00;;;;4885387;28;87217;-65
2022/05/08 05:43:01;;;;;;;12.20;5.40;;;18.10;70.30;19.30;98977.00;;;;4869237;28;86980;-64
2022/05/08 05:45:27;;;;;;;13.45;5.95;;;18.00;69.10;19.10;98971.00;;;;4885274;28;88031;-65
2022/05/08 05:47:53;;;;;;;12.70;5.57;;;17.90;69.40;18.90;98975.00;;;;4885523;28;87327;-64
2022/05/08 05:50:20;;;;;;;12.27;5.43;;;17.70;70.10;18.60;98970.00;;;;4885494;28;87058;-64
2022/05/08 05:52:47;;;;;;;12.20;5.13;;;17.50;71.10;18.30;98969.00;;;;4885534;28;86444;-64
2022/05/08 05:55:13;;;;;;;14.63;5.85;;;17.30;71.80;18.30;98961.00;;;;4884475;28;87659;-63
2022/05/08 05:57:40;;;;;;;15.05;5.35;;;17.30;71.90;18.30;98961.00;;;;4885158;28;88367;-64
2022/05/08 06:00:10;;;;;;;13.98;5.97;;;17.20;73.00;18.40;98967.00;;;;4868157;28;88314;-64
2022/05/08 06:02:42;;;;;;;12.63;5.78;;;17.30;73.50;18.40;98957.00;;;;4885887;28;86839;-64
2022/05/08 06:05:12;;;;;;;11.98;5.57;;;17.50;73.40;18.70;98954.00;;;;4884972;28;88581;-64
2022/05/08 06:07:39;;;;;;;11.37;5.50;;;17.70;73.30;18.90;98954.00;;;;4868778;28;88411;-64
2022/05/08 06:10:08;;;;;;;13.35;6.10;;;17.90;71.70;19.10;98942.00;;;;4885334;28;86987;-66
2022/05/08 06:12:34;;;;;;;17.23;6.45;;;18.00;71.60;19.10;98938.00;;;;4885314;28;87069;-65
2022/05/08 06:15:01;;;;;;;15.40;6.90;;;18.10;70.70;19.10;98939.00;;;;4852853;28;90589;-65
2022/05/08 06:17:27;;;;;;;13.68;6.05;;;18.20;70.80;19.10;98934.00;;;;4886201;28;87648;-65
2022/05/08 06:19:54;;;;;;;16.77;6.50;;;18.00;71.10;18.70;98948.00;;;;4884996;28;87343;-64
2022/05/08 06:22:20;;;;;;;13.43;6.13;;;17.90;72.40;18.70;98934.00;;;;4884206;28;87413;-64
2022/05/08 06:24:46;;;;;;;15.07;7.20;;;17.90;72.50;18.70;98948.00;;;;4884659;28;88681;-64
2022/05/08 06:27:12;;;;;;;14.65;6.57;;;17.90;71.80;19.00;98945.00;;;;4852589;28;90700;-67
2022/05/08 06:29:39;;;;;;;12.15;6.60;;;18.20;71.90;19.10;98947.00;;;;4885499;28;86997;-64
2022/05/08 06:32:05;;;;;;;15.45;6.50;;;18.30;70.20;19.30;98942.00;;;;4884952;28;86978;-64
2022/05/08 06:34:33;;;;;;;11.50;6.53;;;18.50;70.50;19.60;98939.00;;;;4884873;28;87576;-65
2022/05/08 06:36:59;;;;;;;16.92;6.72;;;18.70;70.50;19.70;98947.00;;;;4867577;28;87353;-64
2022/05/08 06:39:26;;;;;;;12.43;6.40;;;18.90;69.10;19.60;98924.00;;;;4884266;28;87269;-64
2022/05/08 06:41:52;;;;;;;19.13;6.68;;;18.70;68.70;19.40;98912.00;;;;4867978;28;86596;-64
2022/05/08 06:44:27;;;;;;;18.20;6.68;;;18.60;68.10;19.50;98942.00;;;;4867675;28;87724;-64
2022/05/08 06:46:54;;;;;;;12.52;6.68;;;18.50;68.00;19.60;98935.00;;;;4884516;28;87616;-64
2022/05/08 06:49:20;;;;;;;16.67;6.80;;;18.70;68.10;19.80;98930.00;;;;4884185;28;87965;-64
2022/05/08 06:51:47;;;;;;;12.63;5.78;;;18.80;67.70;20.00;98941.00;;;;4884381;28;87053;-63
2022/05/08 06:54:14;;;;;;;11.82;6.05;;;18.90;68.00;20.00;98937.00;;;;4865501;28;88188;-64
2022/05/08 06:56:41;;;;;;;16.38;6.47;;;19.10;67.70;19.80;98933.00;;;;4884195;28;87496;-64
2022/05/08 07:01:54;;;;;;;12.77;5.90;;;18.60;68.50;19.50;98949.00;;;;4883611;28;87065;-64
2022/05/08 07:04:20;;;;;;;32.53;6.78;;;18.50;68.40;19.10;98936.00;;;;4883844;28;89079;-63
2022/05/08 07:06:47;;;;;;;18.50;6.32;;;18.20;68.30;19.00;98935.00;;;;4884008;28;87500;-63
2022/05/08 07:09:14;;;;;;;15.52;5.90;;;18.10;68.80;19.00;98934.00;;;;4884108;28;86936;-63
2022/05/08 07:11:41;;;;;;;13.77;5.75;;;18.00;68.60;19.00;98925.00;;;;4883303;28;87077;-64
2022/05/08 07:14:07;;;;;;;17.38;5.63;;;18.00;69.40;19.00;98922.00;;;;4866306;28;88744;-64
2022/05/08 07:16:33;;;;;;;12.80;5.05;;;17.90;69.80;18.80;98918.00;;;;4867043;28;87601;-64
2022/05/08 07:19:00;;;;;;;10.50;5.47;;;17.90;70.30;19.00;98941.00;;;;4883984;28;87480;-63
2022/05/08 07:21:26;;;;;;;13.68;5.90;;;17.90;70.70;18.90;98931.00;;;;4883875;28;87134;-63
2022/05/08 07:23:52;;;;;;;12.63;5.90;;;17.90;70.50;18.90;98920.00;;;;4877863;28;87712;-64
2022/05/08 07:26:18;;;;;;;10.57;5.90;;;17.90;70.80;19.00;98914.00;;;;4883958;28;87095;-62
2022/05/08 07:28:44;;;;;;;8.73;5.20;;;18.00;70.90;19.10;98918.00;;;;4870710;28;87069;-63
2022/05/08 07:31:10;;;;;;;8.60;4.93;;;18.10;70.80;19.20;98915.00;;;;4868305;28;86513;-63
2022/05/08 07:33:37;;;;;;;15.82;5.65;;;18.20;70.00;19.20;98917.00;;;;4884897;28;87372;-63
2022/05/08 07:36:14;;;;;;;11.43;5.40;;;18.20;70.40;19.50;98916.00;;;;4870688;28;87481;-63
2022/05/08 07:38:46;;;;;;;11.35;5.15;;;18.50;69.70;19.40;98909.00;;;;4868616;28;88655;-64
2022/05/08 07:41:15;;;;;;;16.77;5.57;;;18.40;69.50;19.40;98920.00;;;;4885248;28;87027;-67
2022/05/08 07:43:46;;;;;;;16.15;5.50;;;18.40;68.70;19.30;98910.00;;;;4870365;28;88741;-63
2022/05/08 07:46:14;;;;;;;13.52;5.50;;;18.20;67.70;19.50;98926.00;;;;4887715;28;87242;-63
2022/05/08 07:48:41;;;;;;;12.75;5.50;;;18.50;67.80;19.50;98930.00;;;;4871051;28;87118;-64
2022/05/08 07:51:07;;;;;;;8.75;5.28;;;18.50;66.90;19.80;98920.00;;;;4871233;28;87632;-65
2022/05/08 07:53:34;;;;;;;14.68;5.57;;;18.70;66.70;19.50;98914.00;;;;4887114;28;88320;-64
2022/05/08 07:56:01;;;;;;;12.70;5.88;;;18.50;65.70;19.40;98914.00;;;;4887254;28;87268;-64
2022/05/08 07:58:29;;;;;;;14.05;6.00;;;18.40;66.00;19.40;98896.00;;;;4855098;28;86929;-65
2022/05/08 08:00:57;;;;;;;13.82;5.95;;;18.50;66.20;19.60;98893.00;;;;4870665;28;87398;-64
2022/05/08 08:03:29;;;;;;;13.43;5.93;;;18.60;65.40;19.70;98907.00;;;;4868686;28;88505;-65
2022/05/08 08:05:57;;;;;;;11.02;5.85;;;18.60;63.90;19.50;98897.00;;;;4886366;28;89308;-64
2022/05/08 08:08:25;;;;;;;15.88;5.70;;;18.60;64.70;19.40;98904.00;;;;4886780;28;87373;-65
2022/05/08 08:10:58;;;;;;;10.60;5.22;;;18.40;65.20;19.40;98901.00;;;;4886899;28;86982;-64
2022/05/08 08:13:29;;;;;;;10.43;5.38;;;18.50;65.90;19.40;98907.00;;;;4870333;28;87593;-64
2022/05/08 08:15:58;;;;;;;14.00;5.70;;;18.40;64.20;19.40;98894.00;;;;4870007;28;88469;-64
2022/05/08 08:18:24;;;;;;;13.90;5.88;;;18.40;65.10;19.10;98892.00;;;;4887109;28;87002;-64
2022/05/08 08:20:50;;;;;;;14.68;6.03;;;18.20;64.70;19.00;98895.00;;;;4871396;28;86341;-65
2022/05/08 08:23:17;;;;;;;17.02;7.22;;;18.10;65.60;19.20;98888.00;;;;4886803;28;88422;-65
2022/05/08 08:25:43;;;;;;;12.45;5.97;;;18.30;65.70;18.80;98885.00;;;;4886402;28;88719;-65
2022/05/08 08:28:09;;;;;;;11.07;5.63;;;18.00;66.00;18.70;98883.00;;;;4886697;28;87889;-65
2022/05/08 08:30:36;;;;;;;13.90;6.38;;;17.90;65.30;18.90;98893.00;;;;4887207;28;87019;-64
2022/05/08 08:33:02;;;;;;;14.02;6.07;;;18.00;65.70;19.10;98882.00;;;;4886669;28;87603;-63
2022/05/08 08:35:30;;;;;;;10.32;5.60;;;18.20;65.00;19.10;98880.00;;;;4886373;28;87431;-63
2022/05/08 08:37:57;;;;;;;11.18;5.93;;;18.20;65.00;19.10;98878.00;;;;4886251;28;86876;-63
2022/05/08 08:40:23;;;;;;;14.45;6.40;;;18.20;64.70;19.20;98879.00;;;;4886047;28;86993;-64
2022/05/08 08:42:51;;;;;;;15.18;6.30;;;18.30;65.30;19.40;98869.00;;;;4886453;28;87729;-64
2022/05/08 08:48:09;;;;;;;13.60;6.65;;;18.60;64.50;19.50;98876.00;;;;4885363;28;87031;-64
2022/05/08 08:50:36;;;;;;;15.60;6.70;;;18.60;63.50;19.50;98862.00;;;;4870168;28;87087;-64
2022/05/08 08:53:05;;;;;;;15.40;6.38;;;18.50;62.70;19.60;98869.00;;;;4885818;28;88528;-64
2022/05/08 08:55:33;;;;;;;13.07;5.93;;;18.70;62.90;19.60;98860.00;;;;4885834;28;88355;-64
2022/05/08 08:58:00;;;;;;;12.95;6.97;;;18.70;62.60;19.60;98872.00;;;;4869725;28;87353;-64
2022/05/08 09:00:27;;;;;;;17.55;6.50;;;18.70;62.20;19.90;98859.00;;;;4886721;28;87108;-64
2022/05/08 09:02:55;;;;;;;13.05;5.80;;;18.80;61.60;19.70;98862.00;;;;4869060;28;87708;-64
2022/05/08 09:05:24;;;;;;;13.60;6.20;;;18.70;61.50;19.80;98870.00;;;;4885180;28;88547;-64
2022/05/08 09:07:54;;;;;;;15.05;6.43;;;18.80;61.30;19.80;98875.00;;;;4869095;28;87221;-65
2022/05/08 09:10:27;;;;;;;17.95;6.65;;;18.80;61.40;19.50;98874.00;;;;4868644;28;86270;-65
2022/05/08 09:12:53;;;;;;;15.45;6.35;;;18.60;62.50;19.40;98874.00;;;;4885688;28;87831;-64
2022/05/08 09:15:37;;;;;;;15.68;6.65;;;18.50;63.30;19.30;98866.00;;;;4885273;28;87372;-64
2022/05/08 09:18:11;;;;;;;20.58;6.80;;;18.30;63.90;19.30;98858.00;;;;4868116;28;88037;-66
2022/05/08 09:20:48;;;;;;;10.52;6.45;;;18.40;64.20;19.40;98855.00;;;;4885255;28;87051;-64
2022/05/08 09:23:22;;;;;;;14.25;6.30;;;18.50;63.80;19.20;98854.00;;;;4885612;28;87675;-65
2022/05/08 09:26:00;;;;;;;14.90;6.32;;;18.40;64.30;19.30;98843.00;;;;4885583;28;88489;-64
2022/05/08 09:28:29;;;;;;;15.35;6.78;;;18.40;63.20;19.50;98851.00;;;;4886498;28;86843;-64
2022/05/08 09:31:15;;;;;;;12.90;6.25;;;18.50;62.90;19.60;98849.00;;;;4886605;28;87307;-64
2022/05/08 09:33:44;;;;;;;11.75;6.15;;;18.60;63.10;19.80;98863.00;;;;4885242;28;88217;-65
2022/05/08 09:36:23;;;;;;;10.60;6.43;;;18.80;63.30;19.90;98852.00;;;;4886025;28;87432;-65
2022/05/08 09:38:58;;;;;;;14.27;6.10;;;18.80;64.00;19.80;98848.00;;;;4880558;28;86987;-64
2022/05/08 09:41:30;;;;;;;12.65;6.32;;;18.80;64.30;19.50;98839.00;;;;4883133;28;87059;-65
2022/05/08 09:44:16;;;;;;;18.45;6.63;;;18.70;64.50;19.40;98841.00;;;;4884844;28;88634;-64
2022/05/08 09:46:48;;;;;;;16.70;6.80;;;18.60;63.50;19.40;98846.00;;;;4868447;28;88375;-65
2022/05/08 09:49:18;;;;;;;17.90;6.20;;;18.60;63.40;19.50;98834.00;;;;4885725;28;86967;-64
2022/05/08 09:51:46;;;;;;;10.82;5.72;;;18.50;62.90;19.50;98839.00;;;;4885713;28;86939;-64
2022/05/08 09:54:16;;;;;;;10.55;5.78;;;18.60;62.70;19.40;98819.00;;;;4859464;28;87562;-64
2022/05/08 09:56:44;;;;;;;15.88;5.90;;;18.60;62.90;19.60;98821.00;;;;4884973;28;87391;-64
2022/05/08 09:59:11;;;;;;;29.20;6.20;;;18.60;62.30;19.70;98826.00;;;;4885651;28;87465;-64
2022/05/08 10:01:39;;;;;;;12.15;6.38;;;18.70;62.00;19.70;98816.00;;;;4885818;28;86357;-65
2022/05/08 10:04:05;;;;;;;12.77;5.85;;;18.80;61.70;20.00;98813.00;;;;4884933;28;87775;-64
2022/05/08 10:06:39;;;;;;;17.35;5.63;;;19.10;61.90;20.00;98806.00;;;;4883220;28;87104;-64
2022/05/08 10:14:39;;;;;;;17.27;6.50;;;18.90;61.50;19.90;98815.00;;;;4885096;28;87754;-64
2022/05/08 10:17:07;;;;;;;12.80;6.35;;;19.00;60.70;19.80;98780.00;;;;4868455;28;88556;-64
2022/05/08 10:19:33;;;;;;;17.73;6.40;;;19.00;61.40;19.90;98787.00;;;;4884857;28;87341;-64
2022/05/08 10:22:03;;;;;;;13.38;5.90;;;19.10;61.80;19.90;98785.00;;;;4885227;28;87350;-64
2022/05/08 10:24:46;;;;;;;19.75;5.93;;;19.10;61.70;20.00;98780.00;;;;4884813;28;87601;-64
2022/05/08 10:27:31;;;;;;;15.45;5.65;;;19.30;61.10;20.10;98791.00;;;;4879931;28;87440;-64
2022/05/08 10:29:57;;;;;;;17.63;6.15;;;19.30;60.90;20.20;98774.00;;;;4868282;28;86955;-64
2022/05/08 10:32:30;;;;;;;17.95;5.97;;;19.40;60.20;20.20;98759.00;;;;4884942;28;87412;-64
2022/05/08 10:35:30;;;;;;;20.17;6.00;;;19.40;59.90;20.10;98768.00;;;;4883821;28;88494;-64
2022/05/08 10:38:02;;;;;;;18.38;6.03;;;19.30;60.30;20.20;98771.00;;;;4835757;28;89468;-64
2022/05/08 10:40:28;;;;;;;18.10;6.32;;;19.30;60.90;20.30;98760.00;;;;4881557;28;87012;-65
2022/05/08 10:42:59;;;;;;;13.13;5.57;;;19.50;60.60;20.30;98762.00;;;;4884638;28;87206;-65
2022/05/08 10:45:36;;;;;;;10.65;5.75;;;19.50;60.30;20.40;98760.00;;;;4867719;28;88742;-64
2022/05/08 10:48:15;;;;;;;17.75;6.18;;;19.60;60.00;20.60;98748.00;;;;4881706;28;87445;-64
2022/05/08 10:50:48;;;;;;;18.15;5.70;;;19.80;59.90;20.70;98753.00;;;;4867756;28;87469;-64
2022/05/08 10:53:28;;;;;;;10.63;5.53;;;19.80;60.10;20.60;98750.00;;;;4885207;28;86179;-64
2022/05/08 10:56:10;;;;;;;15.60;6.85;;;19.70;60.30;20.50;98739.00;;;;4880944;28;87764;-64
2022/05/08 10:58:41;;;;;;;13.52;6.07;;;19.60;60.50;20.70;98742.00;;;;4866697;28;89949;-64
2022/05/08 11:01:09;;;;;;;12.95;5.53;;;19.80;60.30;20.60;98736.00;;;;4884532;28;87831;-64
2022/05/08 11:03:36;;;;;;;20.40;5.97;;;19.70;61.10;20.60;98734.00;;;;4882799;28;87121;-64
2022/05/08 11:06:04;;;;;;;17.55;5.65;;;19.70;60.40;20.80;98716.00;;;;4884097;28;87734;-65
2022/05/08 11:08:33;;;;;;;10.35;5.88;;;19.90;60.50;20.70;98728.00;;;;4883698;28;88827;-65
2022/05/08 11:11:09;;;;;;;9.60;5.80;;;19.70;61.00;20.60;98724.00;;;;4884039;28;87996;-64